Main page
METAR-TAF:

METAR-TAF

Airports :

Pau Pyrénées Airport

Pau, France

latitude: 43-23N, longitude: 000-25W, elevation: 188 m

Current weather observation

The report was made 31 minutes ago, at 07:30 UTC
Wind 6 kt from the Northeast, varying between North and East/Northeast
Temperature 9°C
Humidity 61%
Pressure 1021 hPa
Visibility 10 km or more
no clouds below 1500 m and no cumulonimbus

METAR: LFBP 210730Z AUTO 04006KT 010V070 CAVOK 09/02 Q1021 NOSIG

Time: 10:01 (08:01 UTC)

Forecast

The report was made 3 hours and 1 minutes ago, at 05:00 UTC
Forecast valid from 21 at 06 UTC to 22 at 06 UTC
Wind 3 kt from variable directions
Visibility 10 km or more
no clouds below 1500 m and no cumulonimbus
Becoming
from 21 at 10 UTC to 21 at 12 UTC
Wind 10 kt from the North/Northeast
Becoming
from 21 at 20 UTC to 21 at 22 UTC
Wind 3 kt from variable directions

TAF: LFBP 210500Z 2106/2206 VRB03KT CAVOK BECMG 2110/2112 02010KT BECMG 2120/2122 VRB03KT

Weather observations and forecasts of more than 4000 airports (METAR and TAF reports).

The available stations are represented by yellow and red dots on the map.

Hover mouse over dot to see the name of the station.

Then click to see weather observations and forecasts.

To change the map : click on the green buttons with a black cross to zoom in, on the green button with a dash to zoom out, or on the green arrows for adjacent maps.


METAR-TAF: